sensor_id;sensor_type;location;lat;lon;timestamp;P1;durP1;ratioP1;P2;durP2;ratioP2
9773;SDS011;4926;42.670;23.316;2022-09-09T00:01:58;11.77;;;10.68;;
9773;SDS011;4926;42.670;23.316;2022-09-09T00:04:28;16.33;;;11.88;;
9773;SDS011;4926;42.670;23.316;2022-09-09T00:06:59;11.90;;;10.80;;
9773;SDS011;4926;42.670;23.316;2022-09-09T00:09:32;14.40;;;10.77;;
9773;SDS011;4926;42.670;23.316;2022-09-09T00:12:09;12.48;;;10.82;;
9773;SDS011;4926;42.670;23.316;2022-09-09T00:14:47;14.10;;;10.63;;
9773;SDS011;4926;42.670;23.316;2022-09-09T00:17:27;11.55;;;10.45;;
9773;SDS011;4926;42.670;23.316;2022-09-09T00:20:05;13.05;;;10.30;;
9773;SDS011;4926;42.670;23.316;2022-09-09T00:22:38;12.40;;;10.90;;
9773;SDS011;4926;42.670;23.316;2022-09-09T00:25:19;13.52;;;10.40;;
9773;SDS011;4926;42.670;23.316;2022-09-09T00:27:53;12.18;;;10.90;;
9773;SDS011;4926;42.670;23.316;2022-09-09T00:30:23;12.55;;;11.25;;
9773;SDS011;4926;42.670;23.316;2022-09-09T00:32:53;12.25;;;10.52;;
9773;SDS011;4926;42.670;23.316;2022-09-09T00:35:25;11.73;;;10.52;;
9773;SDS011;4926;42.670;23.316;2022-09-09T00:37:56;12.25;;;11.00;;
9773;SDS011;4926;42.670;23.316;2022-09-09T00:40:30;13.30;;;11.00;;
9773;SDS011;4926;42.670;23.316;2022-09-09T00:43:05;12.18;;;10.68;;
9773;SDS011;4926;42.670;23.316;2022-09-09T00:45:52;13.00;;;10.93;;
9773;SDS011;4926;42.670;23.316;2022-09-09T00:48:41;12.73;;;10.95;;
9773;SDS011;4926;42.670;23.316;2022-09-09T00:51:21;12.45;;;11.15;;
9773;SDS011;4926;42.670;23.316;2022-09-09T00:54:00;11.88;;;10.55;;
9773;SDS011;4926;42.670;23.316;2022-09-09T00:56:42;12.20;;;10.95;;
9773;SDS011;4926;42.670;23.316;2022-09-09T00:59:16;13.10;;;10.07;;
9773;SDS011;4926;42.670;23.316;2022-09-09T01:01:51;13.02;;;10.27;;
9773;SDS011;4926;42.670;23.316;2022-09-09T01:04:21;12.32;;;10.50;;
9773;SDS011;4926;42.670;23.316;2022-09-09T01:06:58;12.63;;;10.77;;
9773;SDS011;4926;42.670;23.316;2022-09-09T01:09:37;12.82;;;10.45;;
9773;SDS011;4926;42.670;23.316;2022-09-09T01:12:14;14.13;;;10.55;;
9773;SDS011;4926;42.670;23.316;2022-09-09T01:14:43;16.65;;;10.82;;
9773;SDS011;4926;42.670;23.316;2022-09-09T01:17:14;14.45;;;10.75;;
9773;SDS011;4926;42.670;23.316;2022-09-09T01:19:49;12.55;;;11.18;;
9773;SDS011;4926;42.670;23.316;2022-09-09T01:22:27;14.82;;;11.05;;
9773;SDS011;4926;42.670;23.316;2022-09-09T01:25:18;11.93;;;10.73;;
9773;SDS011;4926;42.670;23.316;2022-09-09T01:27:54;13.43;;;11.18;;
9773;SDS011;4926;42.670;23.316;2022-09-09T01:30:25;11.82;;;10.73;;
9773;SDS011;4926;42.670;23.316;2022-09-09T01:32:54;12.18;;;10.95;;
9773;SDS011;4926;42.670;23.316;2022-09-09T01:35:31;13.20;;;11.77;;
9773;SDS011;4926;42.670;23.316;2022-09-09T01:38:04;11.82;;;10.73;;
9773;SDS011;4926;42.670;23.316;2022-09-09T01:40:35;12.65;;;11.25;;
9773;SDS011;4926;42.670;23.316;2022-09-09T01:43:05;12.68;;;10.57;;
9773;SDS011;4926;42.670;23.316;2022-09-09T01:45:32;12.48;;;11.27;;
9773;SDS011;4926;42.670;23.316;2022-09-09T01:48:02;12.35;;;11.15;;
9773;SDS011;4926;42.670;23.316;2022-09-09T01:50:29;11.65;;;10.50;;
9773;SDS011;4926;42.670;23.316;2022-09-09T01:53:02;12.50;;;11.30;;
9773;SDS011;4926;42.670;23.316;2022-09-09T01:55:32;12.40;;;11.27;;
9773;SDS011;4926;42.670;23.316;2022-09-09T01:58:09;12.35;;;11.15;;
9773;SDS011;4926;42.670;23.316;2022-09-09T02:00:48;12.60;;;11.05;;
9773;SDS011;4926;42.670;23.316;2022-09-09T02:03:23;13.77;;;11.70;;
9773;SDS011;4926;42.670;23.316;2022-09-09T02:05:56;17.85;;;11.25;;
9773;SDS011;4926;42.670;23.316;2022-09-09T02:08:36;13.05;;;11.65;;
9773;SDS011;4926;42.670;23.316;2022-09-09T02:11:12;12.10;;;10.98;;
9773;SDS011;4926;42.670;23.316;2022-09-09T02:13:47;16.50;;;11.68;;
9773;SDS011;4926;42.670;23.316;2022-09-09T02:16:18;24.08;;;11.93;;
9773;SDS011;4926;42.670;23.316;2022-09-09T02:18:50;14.75;;;11.27;;
9773;SDS011;4926;42.670;23.316;2022-09-09T02:21:22;14.27;;;11.30;;
9773;SDS011;4926;42.670;23.316;2022-09-09T02:23:51;13.05;;;11.63;;
9773;SDS011;4926;42.670;23.316;2022-09-09T02:26:20;13.30;;;11.93;;
9773;SDS011;4926;42.670;23.316;2022-09-09T02:28:50;13.57;;;11.93;;
9773;SDS011;4926;42.670;23.316;2022-09-09T02:31:20;13.15;;;11.65;;
9773;SDS011;4926;42.670;23.316;2022-09-09T02:33:50;15.07;;;11.80;;
9773;SDS011;4926;42.670;23.316;2022-09-09T02:36:20;12.77;;;11.18;;
9773;SDS011;4926;42.670;23.316;2022-09-09T02:38:50;13.15;;;11.77;;
9773;SDS011;4926;42.670;23.316;2022-09-09T02:41:19;15.80;;;12.18;;
9773;SDS011;4926;42.670;23.316;2022-09-09T02:43:51;13.05;;;11.52;;
9773;SDS011;4926;42.670;23.316;2022-09-09T02:46:24;13.50;;;11.45;;
9773;SDS011;4926;42.670;23.316;2022-09-09T02:49:02;13.50;;;11.15;;
9773;SDS011;4926;42.670;23.316;2022-09-09T02:51:35;14.10;;;12.73;;
9773;SDS011;4926;42.670;23.316;2022-09-09T02:54:10;13.02;;;11.75;;
9773;SDS011;4926;42.670;23.316;2022-09-09T02:56:50;18.55;;;12.63;;
9773;SDS011;4926;42.670;23.316;2022-09-09T02:59:20;13.30;;;11.90;;
9773;SDS011;4926;42.670;23.316;2022-09-09T03:01:50;13.43;;;11.80;;
9773;SDS011;4926;42.670;23.316;2022-09-09T03:04:18;16.98;;;12.45;;
9773;SDS011;4926;42.670;23.316;2022-09-09T03:06:45;13.95;;;12.00;;
9773;SDS011;4926;42.670;23.316;2022-09-09T03:09:12;13.88;;;12.10;;
9773;SDS011;4926;42.670;23.316;2022-09-09T03:11:38;14.45;;;12.25;;
9773;SDS011;4926;42.670;23.316;2022-09-09T03:14:05;15.00;;;13.07;;
9773;SDS011;4926;42.670;23.316;2022-09-09T03:16:33;13.38;;;12.18;;
9773;SDS011;4926;42.670;23.316;2022-09-09T03:19:00;17.52;;;12.43;;
9773;SDS011;4926;42.670;23.316;2022-09-09T03:21:28;17.20;;;12.40;;
9773;SDS011;4926;42.670;23.316;2022-09-09T03:23:59;15.05;;;12.60;;
9773;SDS011;4926;42.670;23.316;2022-09-09T03:26:28;14.35;;;12.48;;
9773;SDS011;4926;42.670;23.316;2022-09-09T03:28:55;13.70;;;12.30;;
9773;SDS011;4926;42.670;23.316;2022-09-09T03:31:22;14.27;;;12.77;;
9773;SDS011;4926;42.670;23.316;2022-09-09T03:33:50;14.65;;;12.75;;
9773;SDS011;4926;42.670;23.316;2022-09-09T03:36:17;13.30;;;11.80;;
9773;SDS011;4926;42.670;23.316;2022-09-09T03:38:48;14.45;;;12.02;;
9773;SDS011;4926;42.670;23.316;2022-09-09T03:41:15;13.75;;;11.95;;
9773;SDS011;4926;42.670;23.316;2022-09-09T03:43:43;15.90;;;12.52;;
9773;SDS011;4926;42.670;23.316;2022-09-09T03:46:10;13.68;;;11.63;;
9773;SDS011;4926;42.670;23.316;2022-09-09T03:48:36;13.32;;;11.88;;
9773;SDS011;4926;42.670;23.316;2022-09-09T03:51:05;14.15;;;12.55;;
9773;SDS011;4926;42.670;23.316;2022-09-09T03:53:31;13.05;;;11.68;;
9773;SDS011;4926;42.670;23.316;2022-09-09T03:55:59;12.73;;;11.48;;
9773;SDS011;4926;42.670;23.316;2022-09-09T03:58:26;19.75;;;13.48;;
9773;SDS011;4926;42.670;23.316;2022-09-09T04:00:54;16.73;;;13.50;;
9773;SDS011;4926;42.670;23.316;2022-09-09T04:03:27;14.50;;;12.38;;
9773;SDS011;4926;42.670;23.316;2022-09-09T04:05:55;14.85;;;12.65;;
9773;SDS011;4926;42.670;23.316;2022-09-09T04:08:26;14.20;;;12.68;;
9773;SDS011;4926;42.670;23.316;2022-09-09T04:10:53;13.48;;;11.98;;
9773;SDS011;4926;42.670;23.316;2022-09-09T04:13:23;14.38;;;11.88;;
9773;SDS011;4926;42.670;23.316;2022-09-09T04:15:50;16.45;;;14.23;;
9773;SDS011;4926;42.670;23.316;2022-09-09T04:18:17;15.73;;;13.43;;
9773;SDS011;4926;42.670;23.316;2022-09-09T04:20:45;15.23;;;13.57;;
9773;SDS011;4926;42.670;23.316;2022-09-09T04:23:12;21.00;;;14.38;;
9773;SDS011;4926;42.670;23.316;2022-09-09T04:25:44;18.95;;;14.20;;
9773;SDS011;4926;42.670;23.316;2022-09-09T04:28:15;14.90;;;13.32;;
9773;SDS011;4926;42.670;23.316;2022-09-09T04:30:43;17.83;;;13.63;;
9773;SDS011;4926;42.670;23.316;2022-09-09T04:33:10;17.65;;;13.52;;
9773;SDS011;4926;42.670;23.316;2022-09-09T04:35:37;16.30;;;13.02;;
9773;SDS011;4926;42.670;23.316;2022-09-09T04:38:04;17.77;;;13.85;;
9773;SDS011;4926;42.670;23.316;2022-09-09T04:40:32;16.58;;;14.38;;
9773;SDS011;4926;42.670;23.316;2022-09-09T04:43:02;15.10;;;13.60;;
9773;SDS011;4926;42.670;23.316;2022-09-09T04:45:30;17.13;;;13.50;;
9773;SDS011;4926;42.670;23.316;2022-09-09T04:47:56;16.80;;;13.45;;
9773;SDS011;4926;42.670;23.316;2022-09-09T04:50:24;15.88;;;14.20;;
9773;SDS011;4926;42.670;23.316;2022-09-09T04:52:56;18.48;;;14.65;;
9773;SDS011;4926;42.670;23.316;2022-09-09T04:55:25;16.63;;;14.00;;
9773;SDS011;4926;42.670;23.316;2022-09-09T04:57:53;18.50;;;13.57;;
9773;SDS011;4926;42.670;23.316;2022-09-09T05:00:24;15.23;;;13.60;;
9773;SDS011;4926;42.670;23.316;2022-09-09T05:02:51;16.33;;;14.10;;
9773;SDS011;4926;42.670;23.316;2022-09-09T05:05:21;14.80;;;13.43;;
9773;SDS011;4926;42.670;23.316;2022-09-09T05:07:48;15.57;;;13.98;;
9773;SDS011;4926;42.670;23.316;2022-09-09T05:10:15;16.35;;;14.60;;
9773;SDS011;4926;42.670;23.316;2022-09-09T05:12:43;16.80;;;15.10;;
9773;SDS011;4926;42.670;23.316;2022-09-09T05:15:21;17.15;;;15.10;;
9773;SDS011;4926;42.670;23.316;2022-09-09T05:17:51;16.23;;;14.57;;
9773;SDS011;4926;42.670;23.316;2022-09-09T05:20:18;15.85;;;14.35;;
9773;SDS011;4926;42.670;23.316;2022-09-09T05:22:47;16.00;;;14.50;;
9773;SDS011;4926;42.670;23.316;2022-09-09T05:25:17;16.08;;;14.23;;
9773;SDS011;4926;42.670;23.316;2022-09-09T05:27:44;18.45;;;14.63;;
9773;SDS011;4926;42.670;23.316;2022-09-09T05:30:11;17.52;;;14.30;;
9773;SDS011;4926;42.670;23.316;2022-09-09T05:32:38;16.27;;;14.55;;
9773;SDS011;4926;42.670;23.316;2022-09-09T05:35:07;17.92;;;13.60;;
9773;SDS011;4926;42.670;23.316;2022-09-09T05:37:35;16.95;;;14.68;;
9773;SDS011;4926;42.670;23.316;2022-09-09T05:40:05;17.63;;;14.50;;
9773;SDS011;4926;42.670;23.316;2022-09-09T05:42:32;17.40;;;13.35;;
9773;SDS011;4926;42.670;23.316;2022-09-09T05:45:02;16.58;;;14.23;;
9773;SDS011;4926;42.670;23.316;2022-09-09T05:47:29;17.40;;;13.95;;
9773;SDS011;4926;42.670;23.316;2022-09-09T05:49:55;18.67;;;14.40;;
9773;SDS011;4926;42.670;23.316;2022-09-09T05:52:24;15.00;;;13.50;;
9773;SDS011;4926;42.670;23.316;2022-09-09T05:54:52;14.32;;;12.88;;
9773;SDS011;4926;42.670;23.316;2022-09-09T05:57:20;13.88;;;12.48;;
9773;SDS011;4926;42.670;23.316;2022-09-09T05:59:50;15.75;;;13.73;;
9773;SDS011;4926;42.670;23.316;2022-09-09T06:02:19;14.10;;;12.60;;
9773;SDS011;4926;42.670;23.316;2022-09-09T06:04:46;17.00;;;13.70;;
9773;SDS011;4926;42.670;23.316;2022-09-09T06:07:15;15.90;;;13.65;;
9773;SDS011;4926;42.670;23.316;2022-09-09T06:09:46;17.23;;;13.07;;
9773;SDS011;4926;42.670;23.316;2022-09-09T06:12:16;14.13;;;12.25;;
9773;SDS011;4926;42.670;23.316;2022-09-09T06:14:43;16.52;;;12.73;;
9773;SDS011;4926;42.670;23.316;2022-09-09T06:17:11;13.13;;;11.82;;
9773;SDS011;4926;42.670;23.316;2022-09-09T06:19:39;14.43;;;12.30;;
9773;SDS011;4926;42.670;23.316;2022-09-09T06:22:05;16.25;;;12.63;;
9773;SDS011;4926;42.670;23.316;2022-09-09T06:24:32;14.23;;;10.85;;
9773;SDS011;4926;42.670;23.316;2022-09-09T06:27:00;13.23;;;11.80;;
9773;SDS011;4926;42.670;23.316;2022-09-09T06:29:27;10.98;;;9.88;;
9773;SDS011;4926;42.670;23.316;2022-09-09T06:31:54;11.57;;;10.48;;
9773;SDS011;4926;42.670;23.316;2022-09-09T06:34:21;16.38;;;10.00;;
9773;SDS011;4926;42.670;23.316;2022-09-09T06:36:48;10.30;;;9.40;;
9773;SDS011;4926;42.670;23.316;2022-09-09T06:39:15;9.93;;;8.93;;
9773;SDS011;4926;42.670;23.316;2022-09-09T06:41:42;10.27;;;9.25;;
9773;SDS011;4926;42.670;23.316;2022-09-09T06:44:10;10.80;;;9.20;;
9773;SDS011;4926;42.670;23.316;2022-09-09T06:46:37;15.40;;;10.05;;
9773;SDS011;4926;42.670;23.316;2022-09-09T06:49:04;12.77;;;9.27;;
9773;SDS011;4926;42.670;23.316;2022-09-09T06:51:34;11.30;;;9.13;;
9773;SDS011;4926;42.670;23.316;2022-09-09T06:54:02;14.95;;;8.85;;
9773;SDS011;4926;42.670;23.316;2022-09-09T06:56:31;13.00;;;8.95;;
9773;SDS011;4926;42.670;23.316;2022-09-09T06:59:00;10.10;;;8.75;;
9773;SDS011;4926;42.670;23.316;2022-09-09T07:01:31;11.60;;;8.60;;
9773;SDS011;4926;42.670;23.316;2022-09-09T07:03:59;10.63;;;8.65;;
9773;SDS011;4926;42.670;23.316;2022-09-09T07:06:27;9.50;;;8.50;;
9773;SDS011;4926;42.670;23.316;2022-09-09T07:08:57;10.57;;;8.73;;
9773;SDS011;4926;42.670;23.316;2022-09-09T07:11:26;11.10;;;8.40;;
9773;SDS011;4926;42.670;23.316;2022-09-09T07:13:56;10.27;;;8.88;;
9773;SDS011;4926;42.670;23.316;2022-09-09T07:16:26;10.95;;;9.80;;
9773;SDS011;4926;42.670;23.316;2022-09-09T07:18:55;10.43;;;9.32;;
9773;SDS011;4926;42.670;23.316;2022-09-09T07:21:23;10.57;;;9.25;;
9773;SDS011;4926;42.670;23.316;2022-09-09T07:23:51;11.80;;;9.40;;
9773;SDS011;4926;42.670;23.316;2022-09-09T07:26:19;11.00;;;9.15;;
9773;SDS011;4926;42.670;23.316;2022-09-09T07:28:47;9.57;;;8.57;;
9773;SDS011;4926;42.670;23.316;2022-09-09T07:31:15;15.25;;;8.52;;
9773;SDS011;4926;42.670;23.316;2022-09-09T07:33:46;10.30;;;8.50;;
9773;SDS011;4926;42.670;23.316;2022-09-09T07:36:15;9.82;;;7.60;;
9773;SDS011;4926;42.670;23.316;2022-09-09T07:38:47;11.60;;;7.75;;
9773;SDS011;4926;42.670;23.316;2022-09-09T07:41:17;11.48;;;7.55;;
9773;SDS011;4926;42.670;23.316;2022-09-09T07:43:45;9.15;;;7.63;;
9773;SDS011;4926;42.670;23.316;2022-09-09T07:46:15;11.40;;;7.30;;
9773;SDS011;4926;42.670;23.316;2022-09-09T07:48:44;13.75;;;7.07;;
9773;SDS011;4926;42.670;23.316;2022-09-09T07:51:15;10.77;;;7.05;;
9773;SDS011;4926;42.670;23.316;2022-09-09T07:53:45;11.07;;;6.72;;
9773;SDS011;4926;42.670;23.316;2022-09-09T07:56:13;6.90;;;6.30;;
9773;SDS011;4926;42.670;23.316;2022-09-09T07:58:44;7.47;;;6.55;;
9773;SDS011;4926;42.670;23.316;2022-09-09T08:01:13;9.48;;;6.50;;
9773;SDS011;4926;42.670;23.316;2022-09-09T08:03:41;8.68;;;6.63;;
9773;SDS011;4926;42.670;23.316;2022-09-09T08:06:09;14.77;;;7.10;;
9773;SDS011;4926;42.670;23.316;2022-09-09T08:08:40;10.45;;;6.70;;
9773;SDS011;4926;42.670;23.316;2022-09-09T08:11:09;9.48;;;6.35;;
9773;SDS011;4926;42.670;23.316;2022-09-09T08:13:37;8.30;;;6.90;;
9773;SDS011;4926;42.670;23.316;2022-09-09T08:16:06;8.23;;;6.80;;
9773;SDS011;4926;42.670;23.316;2022-09-09T08:18:36;8.55;;;6.70;;
9773;SDS011;4926;42.670;23.316;2022-09-09T08:21:04;11.07;;;6.65;;
9773;SDS011;4926;42.670;23.316;2022-09-09T08:23:33;10.13;;;6.80;;
9773;SDS011;4926;42.670;23.316;2022-09-09T08:26:06;7.55;;;5.78;;
9773;SDS011;4926;42.670;23.316;2022-09-09T08:28:35;9.70;;;6.68;;
9773;SDS011;4926;42.670;23.316;2022-09-09T08:31:06;7.28;;;5.85;;
9773;SDS011;4926;42.670;23.316;2022-09-09T08:33:34;9.63;;;6.85;;
9773;SDS011;4926;42.670;23.316;2022-09-09T08:36:03;6.53;;;5.93;;
9773;SDS011;4926;42.670;23.316;2022-09-09T08:38:32;7.65;;;6.43;;
9773;SDS011;4926;42.670;23.316;2022-09-09T08:41:03;10.40;;;5.68;;
9773;SDS011;4926;42.670;23.316;2022-09-09T08:43:44;7.65;;;6.10;;
9773;SDS011;4926;42.670;23.316;2022-09-09T08:46:14;8.77;;;5.78;;
9773;SDS011;4926;42.670;23.316;2022-09-09T08:48:52;7.35;;;6.22;;
9773;SDS011;4926;42.670;23.316;2022-09-09T08:51:25;7.40;;;6.00;;
9773;SDS011;4926;42.670;23.316;2022-09-09T08:53:54;7.30;;;6.28;;
9773;SDS011;4926;42.670;23.316;2022-09-09T08:56:25;9.40;;;6.15;;
9773;SDS011;4926;42.670;23.316;2022-09-09T08:58:55;10.50;;;6.13;;
9773;SDS011;4926;42.670;23.316;2022-09-09T09:01:35;10.25;;;5.28;;
9773;SDS011;4926;42.670;23.316;2022-09-09T09:04:13;11.27;;;6.00;;
9773;SDS011;4926;42.670;23.316;2022-09-09T09:06:50;11.93;;;6.53;;
9773;SDS011;4926;42.670;23.316;2022-09-09T09:09:31;7.53;;;5.85;;
9773;SDS011;4926;42.670;23.316;2022-09-09T09:12:08;6.82;;;5.95;;
9773;SDS011;4926;42.670;23.316;2022-09-09T09:14:43;6.20;;;5.63;;
9773;SDS011;4926;42.670;23.316;2022-09-09T09:17:14;9.05;;;6.30;;
9773;SDS011;4926;42.670;23.316;2022-09-09T09:19:44;5.93;;;5.32;;
9773;SDS011;4926;42.670;23.316;2022-09-09T09:22:14;11.13;;;6.00;;
9773;SDS011;4926;42.670;23.316;2022-09-09T09:24:50;8.88;;;5.53;;
9773;SDS011;4926;42.670;23.316;2022-09-09T09:27:26;6.70;;;6.00;;
9773;SDS011;4926;42.670;23.316;2022-09-09T09:30:12;7.68;;;5.90;;
9773;SDS011;4926;42.670;23.316;2022-09-09T09:32:43;7.90;;;6.60;;
9773;SDS011;4926;42.670;23.316;2022-09-09T09:35:15;10.20;;;6.22;;
9773;SDS011;4926;42.670;23.316;2022-09-09T09:37:45;11.57;;;6.43;;
9773;SDS011;4926;42.670;23.316;2022-09-09T09:40:12;6.40;;;5.80;;
9773;SDS011;4926;42.670;23.316;2022-09-09T09:42:47;7.82;;;6.40;;
9773;SDS011;4926;42.670;23.316;2022-09-09T09:45:20;9.50;;;6.22;;
9773;SDS011;4926;42.670;23.316;2022-09-09T09:47:59;11.88;;;6.32;;
9773;SDS011;4926;42.670;23.316;2022-09-09T09:50:28;10.93;;;6.13;;
9773;SDS011;4926;42.670;23.316;2022-09-09T09:52:57;11.07;;;7.43;;
9773;SDS011;4926;42.670;23.316;2022-09-09T09:55:25;12.48;;;6.78;;
9773;SDS011;4926;42.670;23.316;2022-09-09T09:57:52;7.05;;;6.00;;
9773;SDS011;4926;42.670;23.316;2022-09-09T10:00:23;11.30;;;6.65;;
9773;SDS011;4926;42.670;23.316;2022-09-09T10:02:52;8.75;;;6.50;;
9773;SDS011;4926;42.670;23.316;2022-09-09T10:05:21;9.45;;;7.05;;
9773;SDS011;4926;42.670;23.316;2022-09-09T10:08:02;8.35;;;6.45;;
9773;SDS011;4926;42.670;23.316;2022-09-09T10:10:34;9.48;;;6.78;;
9773;SDS011;4926;42.670;23.316;2022-09-09T10:13:10;10.63;;;8.07;;
9773;SDS011;4926;42.670;23.316;2022-09-09T10:15:46;9.98;;;6.65;;
9773;SDS011;4926;42.670;23.316;2022-09-09T10:18:30;14.82;;;7.22;;
9773;SDS011;4926;42.670;23.316;2022-09-09T10:21:08;11.23;;;7.03;;
9773;SDS011;4926;42.670;23.316;2022-09-09T10:23:54;11.68;;;6.80;;
9773;SDS011;4926;42.670;23.316;2022-09-09T10:26:43;10.10;;;7.05;;
9773;SDS011;4926;42.670;23.316;2022-09-09T10:29:27;9.52;;;7.18;;
9773;SDS011;4926;42.670;23.316;2022-09-09T10:32:10;9.40;;;7.00;;
9773;SDS011;4926;42.670;23.316;2022-09-09T10:34:56;11.23;;;6.97;;
9773;SDS011;4926;42.670;23.316;2022-09-09T10:37:31;9.50;;;7.18;;
9773;SDS011;4926;42.670;23.316;2022-09-09T10:40:14;10.30;;;7.20;;
9773;SDS011;4926;42.670;23.316;2022-09-09T10:42:57;8.82;;;6.93;;
9773;SDS011;4926;42.670;23.316;2022-09-09T10:45:32;9.40;;;7.18;;
9773;SDS011;4926;42.670;23.316;2022-09-09T10:48:21;7.78;;;6.78;;
9773;SDS011;4926;42.670;23.316;2022-09-09T10:51:00;10.90;;;6.80;;
9773;SDS011;4926;42.670;23.316;2022-09-09T10:53:43;9.52;;;6.63;;
9773;SDS011;4926;42.670;23.316;2022-09-09T10:56:18;10.48;;;7.20;;
9773;SDS011;4926;42.670;23.316;2022-09-09T10:58:50;11.95;;;7.95;;
9773;SDS011;4926;42.670;23.316;2022-09-09T11:01:22;11.35;;;7.13;;
9773;SDS011;4926;42.670;23.316;2022-09-09T11:03:54;11.75;;;7.95;;
9773;SDS011;4926;42.670;23.316;2022-09-09T11:06:27;18.33;;;8.77;;
9773;SDS011;4926;42.670;23.316;2022-09-09T11:08:58;14.13;;;7.93;;
9773;SDS011;4926;42.670;23.316;2022-09-09T11:11:29;13.50;;;8.27;;
9773;SDS011;4926;42.670;23.316;2022-09-09T11:14:01;19.02;;;8.43;;
9773;SDS011;4926;42.670;23.316;2022-09-09T11:16:36;9.80;;;7.82;;
9773;SDS011;4926;42.670;23.316;2022-09-09T11:19:13;14.02;;;7.95;;
9773;SDS011;4926;42.670;23.316;2022-09-09T11:21:46;14.77;;;8.55;;
9773;SDS011;4926;42.670;23.316;2022-09-09T11:24:18;13.10;;;9.35;;
9773;SDS011;4926;42.670;23.316;2022-09-09T11:26:52;14.52;;;8.60;;
9773;SDS011;4926;42.670;23.316;2022-09-09T11:32:47;15.27;;;8.82;;
9773;SDS011;4926;42.670;23.316;2022-09-09T11:35:42;15.05;;;10.52;;
9773;SDS011;4926;42.670;23.316;2022-09-09T11:38:19;13.90;;;9.65;;
9773;SDS011;4926;42.670;23.316;2022-09-09T11:40:53;12.07;;;8.40;;
9773;SDS011;4926;42.670;23.316;2022-09-09T11:43:23;14.65;;;9.10;;
9773;SDS011;4926;42.670;23.316;2022-09-09T11:45:54;15.82;;;9.57;;
9773;SDS011;4926;42.670;23.316;2022-09-09T11:48:26;13.10;;;8.82;;
9773;SDS011;4926;42.670;23.316;2022-09-09T11:51:03;15.85;;;8.75;;
9773;SDS011;4926;42.670;23.316;2022-09-09T11:53:35;12.52;;;8.50;;
9773;SDS011;4926;42.670;23.316;2022-09-09T11:56:22;11.27;;;8.80;;
9773;SDS011;4926;42.670;23.316;2022-09-09T11:59:00;11.88;;;8.20;;
9773;SDS011;4926;42.670;23.316;2022-09-09T12:01:34;13.35;;;8.88;;
9773;SDS011;4926;42.670;23.316;2022-09-09T12:04:14;10.82;;;8.02;;
9773;SDS011;4926;42.670;23.316;2022-09-09T12:06:59;9.77;;;7.88;;
9773;SDS011;4926;42.670;23.316;2022-09-09T12:09:30;11.13;;;8.10;;
9773;SDS011;4926;42.670;23.316;2022-09-09T12:12:17;13.50;;;8.30;;
9773;SDS011;4926;42.670;23.316;2022-09-09T12:17:46;12.25;;;8.80;;
9773;SDS011;4926;42.670;23.316;2022-09-09T12:20:18;11.05;;;8.15;;
9773;SDS011;4926;42.670;23.316;2022-09-09T12:23:01;13.55;;;8.18;;
9773;SDS011;4926;42.670;23.316;2022-09-09T12:25:51;14.25;;;8.40;;
9773;SDS011;4926;42.670;23.316;2022-09-09T12:28:25;10.70;;;7.68;;
9773;SDS011;4926;42.670;23.316;2022-09-09T12:31:02;12.73;;;8.05;;
9773;SDS011;4926;42.670;23.316;2022-09-09T12:33:42;12.18;;;7.50;;
9773;SDS011;4926;42.670;23.316;2022-09-09T12:36:12;12.80;;;8.40;;
9773;SDS011;4926;42.670;23.316;2022-09-09T12:38:44;9.80;;;7.57;;
9773;SDS011;4926;42.670;23.316;2022-09-09T12:41:18;12.20;;;7.75;;
9773;SDS011;4926;42.670;23.316;2022-09-09T12:43:49;16.17;;;8.55;;
9773;SDS011;4926;42.670;23.316;2022-09-09T12:46:21;13.85;;;8.63;;
9773;SDS011;4926;42.670;23.316;2022-09-09T12:48:55;12.65;;;8.30;;
9773;SDS011;4926;42.670;23.316;2022-09-09T12:51:24;15.48;;;8.70;;
9773;SDS011;4926;42.670;23.316;2022-09-09T12:53:55;12.98;;;8.70;;
9773;SDS011;4926;42.670;23.316;2022-09-09T12:56:25;11.68;;;8.52;;
9773;SDS011;4926;42.670;23.316;2022-09-09T12:58:55;11.15;;;8.73;;
9773;SDS011;4926;42.670;23.316;2022-09-09T13:01:24;11.90;;;8.27;;
9773;SDS011;4926;42.670;23.316;2022-09-09T13:03:52;15.02;;;8.55;;
9773;SDS011;4926;42.670;23.316;2022-09-09T13:06:23;14.65;;;8.48;;
9773;SDS011;4926;42.670;23.316;2022-09-09T13:08:52;16.15;;;8.25;;
9773;SDS011;4926;42.670;23.316;2022-09-09T13:11:21;13.65;;;8.25;;
9773;SDS011;4926;42.670;23.316;2022-09-09T13:13:53;12.73;;;8.75;;
9773;SDS011;4926;42.670;23.316;2022-09-09T13:16:22;12.75;;;8.52;;
9773;SDS011;4926;42.670;23.316;2022-09-09T13:18:55;13.95;;;8.90;;
9773;SDS011;4926;42.670;23.316;2022-09-09T13:21:30;13.60;;;8.27;;
9773;SDS011;4926;42.670;23.316;2022-09-09T13:23:59;18.20;;;10.43;;
9773;SDS011;4926;42.670;23.316;2022-09-09T13:26:29;10.23;;;6.60;;
9773;SDS011;4926;42.670;23.316;2022-09-09T13:29:07;10.23;;;6.90;;
9773;SDS011;4926;42.670;23.316;2022-09-09T13:31:48;12.52;;;8.35;;
9773;SDS011;4926;42.670;23.316;2022-09-09T13:34:25;12.70;;;8.90;;
9773;SDS011;4926;42.670;23.316;2022-09-09T13:36:59;13.55;;;8.55;;
9773;SDS011;4926;42.670;23.316;2022-09-09T13:39:27;11.13;;;9.13;;
9773;SDS011;4926;42.670;23.316;2022-09-09T13:41:56;15.15;;;9.38;;
9773;SDS011;4926;42.670;23.316;2022-09-09T13:44:24;16.52;;;10.57;;
9773;SDS011;4926;42.670;23.316;2022-09-09T13:47:00;12.55;;;8.27;;
9773;SDS011;4926;42.670;23.316;2022-09-09T13:49:28;12.80;;;8.23;;
9773;SDS011;4926;42.670;23.316;2022-09-09T13:52:05;13.93;;;7.95;;
9773;SDS011;4926;42.670;23.316;2022-09-09T13:54:36;13.52;;;7.78;;
9773;SDS011;4926;42.670;23.316;2022-09-09T13:57:04;10.13;;;8.27;;
9773;SDS011;4926;42.670;23.316;2022-09-09T13:59:32;11.38;;;8.18;;
9773;SDS011;4926;42.670;23.316;2022-09-09T14:01:59;11.15;;;7.70;;
9773;SDS011;4926;42.670;23.316;2022-09-09T14:04:27;10.40;;;8.60;;
9773;SDS011;4926;42.670;23.316;2022-09-09T14:06:54;11.50;;;8.20;;
9773;SDS011;4926;42.670;23.316;2022-09-09T14:09:24;10.65;;;8.20;;
9773;SDS011;4926;42.670;23.316;2022-09-09T14:11:51;14.98;;;7.95;;
9773;SDS011;4926;42.670;23.316;2022-09-09T14:14:20;11.93;;;8.23;;
9773;SDS011;4926;42.670;23.316;2022-09-09T14:16:47;14.20;;;8.07;;
9773;SDS011;4926;42.670;23.316;2022-09-09T14:19:14;14.68;;;7.78;;
9773;SDS011;4926;42.670;23.316;2022-09-09T14:21:40;13.18;;;8.32;;
9773;SDS011;4926;42.670;23.316;2022-09-09T14:24:07;12.85;;;8.55;;
9773;SDS011;4926;42.670;23.316;2022-09-09T14:26:34;11.25;;;8.40;;
9773;SDS011;4926;42.670;23.316;2022-09-09T14:29:01;16.20;;;8.40;;
9773;SDS011;4926;42.670;23.316;2022-09-09T14:31:29;13.30;;;8.27;;
9773;SDS011;4926;42.670;23.316;2022-09-09T14:33:59;12.77;;;8.68;;
9773;SDS011;4926;42.670;23.316;2022-09-09T14:36:25;9.80;;;7.72;;
9773;SDS011;4926;42.670;23.316;2022-09-09T14:38:52;17.92;;;9.73;;
9773;SDS011;4926;42.670;23.316;2022-09-09T14:41:20;13.18;;;8.30;;
9773;SDS011;4926;42.670;23.316;2022-09-09T14:43:50;16.52;;;8.65;;
9773;SDS011;4926;42.670;23.316;2022-09-09T14:46:19;15.68;;;8.40;;
9773;SDS011;4926;42.670;23.316;2022-09-09T14:48:47;13.30;;;8.02;;
9773;SDS011;4926;42.670;23.316;2022-09-09T14:51:15;13.13;;;9.25;;
9773;SDS011;4926;42.670;23.316;2022-09-09T14:53:44;13.90;;;8.32;;
9773;SDS011;4926;42.670;23.316;2022-09-09T14:56:13;17.48;;;7.97;;
9773;SDS011;4926;42.670;23.316;2022-09-09T14:58:42;14.98;;;7.15;;
9773;SDS011;4926;42.670;23.316;2022-09-09T15:01:12;14.23;;;8.15;;
9773;SDS011;4926;42.670;23.316;2022-09-09T15:03:40;13.43;;;7.80;;
9773;SDS011;4926;42.670;23.316;2022-09-09T15:06:09;14.63;;;8.43;;
9773;SDS011;4926;42.670;23.316;2022-09-09T15:08:37;19.27;;;9.23;;
9773;SDS011;4926;42.670;23.316;2022-09-09T15:11:08;9.10;;;8.00;;
9773;SDS011;4926;42.670;23.316;2022-09-09T15:13:36;18.67;;;9.68;;
9773;SDS011;4926;42.670;23.316;2022-09-09T15:16:04;21.80;;;9.93;;